createdAt,value
2017-10-27T00:00:21.732Z,0
2017-10-27T00:01:21.453Z,0
2017-10-27T00:02:21.704Z,0
2017-10-27T00:03:21.762Z,0
2017-10-27T00:04:21.484Z,0
2017-10-27T00:05:21.353Z,0
2017-10-27T00:06:21.061Z,0
2017-10-27T00:07:21.612Z,0
2017-10-27T00:08:21.327Z,0
2017-10-27T00:09:21.654Z,0
2017-10-27T00:10:21.619Z,0
2017-10-27T00:11:21.573Z,0
2017-10-27T00:12:21.523Z,0
2017-10-27T00:13:21.544Z,0
2017-10-27T00:14:21.477Z,0
2017-10-27T00:15:21.528Z,0
2017-10-27T00:16:20.463Z,0
2017-10-27T00:17:20.440Z,0
2017-10-27T00:18:21.440Z,0
2017-10-27T00:19:21.422Z,0
2017-10-27T00:20:21.029Z,0
2017-10-27T00:21:21.021Z,0
2017-10-27T00:22:20.409Z,0
2017-10-27T00:23:20.972Z,0
2017-10-27T00:24:20.759Z,0
2017-10-27T00:25:20.940Z,0
2017-10-27T00:26:20.601Z,0
2017-10-27T00:27:20.582Z,0
2017-10-27T00:28:20.891Z,0
2017-10-27T00:29:21.211Z,0
2017-10-27T00:30:20.852Z,0
2017-10-27T00:31:21.221Z,0
2017-10-27T00:32:20.853Z,0
2017-10-27T00:33:20.857Z,0
2017-10-27T00:34:20.492Z,0
2017-10-27T00:35:21.107Z,0
2017-10-27T00:36:20.542Z,0
2017-10-27T00:37:20.391Z,0
2017-10-27T00:38:20.750Z,0
2017-10-27T00:39:20.334Z,0
2017-10-27T00:40:20.981Z,0
2017-10-27T00:41:20.653Z,0
2017-10-27T00:42:20.612Z,0
2017-10-27T00:43:20.272Z,0
2017-10-27T00:44:21.020Z,0
2017-10-27T00:45:20.558Z,0
2017-10-27T00:46:20.872Z,0
2017-10-27T00:47:20.214Z,0
2017-10-27T00:48:20.514Z,0
2017-10-27T00:49:19.851Z,0
2017-10-27T00:50:20.482Z,0
2017-10-27T00:51:20.797Z,0
2017-10-27T00:52:20.107Z,0
2017-10-27T00:53:20.413Z,0
2017-10-27T00:54:20.111Z,0
2017-10-27T00:55:20.057Z,0
2017-10-27T00:56:20.362Z,0
2017-10-27T00:57:20.015Z,0
2017-10-27T00:58:19.989Z,0
2017-10-27T00:59:20.343Z,0
2017-10-27T01:00:20.290Z,0
2017-10-27T01:01:19.950Z,0
2017-10-27T01:02:19.589Z,0
2017-10-27T01:03:20.222Z,0
2017-10-27T01:04:20.193Z,0
2017-10-27T01:05:19.535Z,0
2017-10-27T01:06:19.570Z,0
2017-10-27T01:07:19.919Z,0
2017-10-27T01:08:19.872Z,0
2017-10-27T01:09:19.792Z,0
2017-10-27T01:10:19.767Z,0
2017-10-27T01:11:20.070Z,0
2017-10-27T01:12:19.772Z,0
2017-10-27T01:13:19.392Z,0
2017-10-27T01:14:19.689Z,0
2017-10-27T01:15:20.031Z,0
2017-10-27T01:16:19.694Z,0
2017-10-27T01:17:19.968Z,0
2017-10-27T01:18:19.632Z,0
2017-10-27T01:19:19.633Z,0
2017-10-27T01:20:19.267Z,0
2017-10-27T01:21:19.571Z,0
2017-10-27T01:22:19.878Z,0
2017-10-27T01:23:19.858Z,0
2017-10-27T01:24:19.594Z,0
2017-10-27T01:25:20.135Z,0
2017-10-27T01:26:19.473Z,0
2017-10-27T01:27:19.443Z,0
2017-10-27T01:28:19.105Z,0
2017-10-27T01:29:19.415Z,0
2017-10-27T01:30:19.377Z,0
2017-10-27T01:31:19.368Z,0
2017-10-27T01:32:19.725Z,0
2017-10-27T01:33:19.655Z,0
2017-10-27T01:34:19.697Z,0
2017-10-27T01:35:19.683Z,0
2017-10-27T01:36:19.293Z,0
2017-10-27T01:37:19.253Z,0
2017-10-27T01:38:19.245Z,0
2017-10-27T01:39:18.922Z,0
2017-10-27T01:40:19.196Z,0
2017-10-27T01:41:19.193Z,0
2017-10-27T01:42:19.493Z,0
2017-10-27T01:43:19.145Z,0
2017-10-27T01:44:19.568Z,0
2017-10-27T01:45:19.103Z,0
2017-10-27T01:46:19.194Z,0
2017-10-27T01:47:19.066Z,0
2017-10-27T01:48:19.375Z,0
2017-10-27T01:49:19.391Z,0
2017-10-27T01:50:18.777Z,0
2017-10-27T01:51:19.011Z,0
2017-10-27T01:52:19.313Z,0
2017-10-27T01:53:19.295Z,0
2017-10-27T01:54:19.606Z,0
2017-10-27T01:55:18.905Z,0
2017-10-27T01:56:19.213Z,0
2017-10-27T01:57:18.573Z,0
2017-10-27T01:58:19.194Z,0
2017-10-27T01:59:19.189Z,0
2017-10-27T02:00:19.483Z,0
2017-10-27T02:01:19.250Z,0
2017-10-27T02:02:19.103Z,0
2017-10-27T02:03:19.432Z,0
2017-10-27T02:04:19.141Z,0
2017-10-27T02:05:19.067Z,0
2017-10-27T02:06:19.351Z,0
2017-10-27T02:07:19.042Z,0
2017-10-27T02:08:19.382Z,0
2017-10-27T02:09:19.371Z,0
2017-10-27T02:10:18.641Z,0
2017-10-27T02:11:19.283Z,0
2017-10-27T02:12:19.288Z,0
2017-10-27T02:13:18.581Z,0
2017-10-27T02:14:19.263Z,0
2017-10-27T02:15:19.221Z,0
2017-10-27T02:16:19.198Z,0
2017-10-27T02:17:19.157Z,0
2017-10-27T02:18:18.829Z,0
2017-10-27T02:19:19.107Z,0
2017-10-27T02:20:19.151Z,0
2017-10-27T02:21:18.420Z,0
2017-10-27T02:22:19.064Z,0
2017-10-27T02:23:18.693Z,0
2017-10-27T02:24:18.710Z,0
2017-10-27T02:25:18.664Z,0
2017-10-27T02:26:18.315Z,0
2017-10-27T02:27:18.966Z,0
2017-10-27T02:28:18.632Z,0
2017-10-27T02:29:18.261Z,0
2017-10-27T02:30:17.917Z,0
2017-10-27T02:31:18.264Z,0
2017-10-27T02:32:17.888Z,0
2017-10-27T02:33:18.193Z,0
2017-10-27T02:34:18.852Z,0
2017-10-27T02:35:18.806Z,0
2017-10-27T02:36:17.813Z,0
2017-10-27T02:37:18.842Z,0
2017-10-27T02:38:17.799Z,0
2017-10-27T02:39:18.073Z,0
2017-10-27T02:40:18.383Z,0
2017-10-27T02:41:18.094Z,0
2017-10-27T02:42:18.341Z,0
2017-10-27T02:43:18.320Z,0
2017-10-27T02:44:18.369Z,0
2017-10-27T02:45:17.963Z,0
2017-10-27T02:46:18.264Z,0
2017-10-27T02:47:17.912Z,0
2017-10-27T02:48:17.903Z,0
2017-10-27T02:49:18.213Z,0
2017-10-27T02:50:18.181Z,0
2017-10-27T02:51:18.516Z,0
2017-10-27T02:52:17.834Z,0
2017-10-27T02:53:18.141Z,0
2017-10-27T02:54:18.512Z,0
2017-10-27T02:55:18.111Z,0
2017-10-27T02:56:17.423Z,0
2017-10-27T02:57:18.060Z,0
2017-10-27T02:58:18.046Z,0
2017-10-27T02:59:17.699Z,0
2017-10-27T03:00:17.710Z,0
2017-10-27T03:01:18.004Z,0
2017-10-27T03:02:17.951Z,0
2017-10-27T03:03:18.366Z,0
2017-10-27T03:04:17.276Z,0
2017-10-27T03:05:17.893Z,0
2017-10-27T03:06:17.566Z,0
2017-10-27T03:07:17.589Z,0
2017-10-27T03:08:17.870Z,0
2017-10-27T03:09:17.880Z,0
2017-10-27T03:10:18.176Z,0
2017-10-27T03:11:17.853Z,0
2017-10-27T03:12:17.441Z,0
2017-10-27T03:13:17.481Z,0
2017-10-27T03:14:17.075Z,0
2017-10-27T03:15:17.061Z,0
2017-10-27T03:16:18.006Z,0
2017-10-27T03:17:17.081Z,0
2017-10-27T03:18:17.321Z,0
2017-10-27T03:19:17.991Z,0
2017-10-27T03:20:17.634Z,0
2017-10-27T03:21:17.602Z,0
2017-10-27T03:22:17.565Z,0
2017-10-27T03:23:16.992Z,0
2017-10-27T03:24:17.274Z,0
2017-10-27T03:25:17.196Z,0
2017-10-27T03:26:16.951Z,0
2017-10-27T03:27:17.569Z,0
2017-10-27T03:28:17.469Z,0
2017-10-27T03:29:16.862Z,0
2017-10-27T03:30:17.101Z,0
2017-10-27T03:31:16.831Z,0
2017-10-27T03:32:17.382Z,0
2017-10-27T03:33:17.401Z,0
2017-10-27T03:34:17.329Z,0
2017-10-27T03:35:17.011Z,0
2017-10-27T03:36:17.630Z,0
2017-10-27T03:37:17.303Z,0
2017-10-27T03:38:17.598Z,0
2017-10-27T03:39:16.915Z,0
2017-10-27T03:40:16.911Z,0
2017-10-27T03:41:17.224Z,0
2017-10-27T03:42:16.958Z,0
2017-10-27T03:43:16.534Z,0
2017-10-27T03:44:17.141Z,0
2017-10-27T03:45:17.671Z,0
2017-10-27T03:46:16.791Z,0
2017-10-27T03:47:16.757Z,0
2017-10-27T03:48:17.121Z,0
2017-10-27T03:49:16.725Z,0
2017-10-27T03:50:16.763Z,0
2017-10-27T03:51:17.000Z,0
2017-10-27T03:52:17.212Z,0
2017-10-27T03:53:16.990Z,0
2017-10-27T03:54:16.952Z,0
2017-10-27T03:55:16.974Z,0
2017-10-27T03:56:16.946Z,0
2017-10-27T03:57:16.904Z,0
2017-10-27T03:58:16.897Z,0
2017-10-27T03:59:16.883Z,0
2017-10-27T04:00:16.850Z,0
2017-10-27T04:01:16.815Z,0
2017-10-27T04:02:16.814Z,0
2017-10-27T04:03:16.141Z,0
2017-10-27T04:04:16.766Z,0
2017-10-27T04:05:17.069Z,0
2017-10-27T04:06:16.400Z,0
2017-10-27T04:07:16.390Z,0
2017-10-27T04:08:17.068Z,0
2017-10-27T04:09:16.670Z,0
2017-10-27T04:10:16.632Z,0
2017-10-27T04:11:16.629Z,0
2017-10-27T04:12:16.948Z,0
2017-10-27T04:13:16.597Z,0
2017-10-27T04:14:16.887Z,0
2017-10-27T04:15:16.888Z,0
2017-10-27T04:16:16.870Z,0
2017-10-27T04:17:16.852Z,0
2017-10-27T04:18:16.490Z,0
2017-10-27T04:19:16.481Z,0
2017-10-27T04:20:16.452Z,0
2017-10-27T04:21:16.107Z,0
2017-10-27T04:22:16.742Z,0
2017-10-27T04:23:16.775Z,0
2017-10-27T04:24:16.374Z,0
2017-10-27T04:25:16.351Z,0
2017-10-27T04:26:16.365Z,0
2017-10-27T04:27:15.669Z,0
2017-10-27T04:28:16.306Z,0
2017-10-27T04:29:16.281Z,0
2017-10-27T04:30:15.943Z,0
2017-10-27T04:31:15.900Z,0
2017-10-27T04:32:15.262Z,0
2017-10-27T04:33:16.213Z,0
2017-10-27T04:34:15.910Z,0
2017-10-27T04:35:16.479Z,0
2017-10-27T04:36:15.849Z,0
2017-10-27T04:37:16.442Z,0
2017-10-27T04:38:16.465Z,0
2017-10-27T04:39:15.745Z,0
2017-10-27T04:40:16.054Z,0
2017-10-27T04:41:15.712Z,0
2017-10-27T04:42:15.370Z,0
2017-10-27T04:43:16.312Z,0
2017-10-27T04:44:15.962Z,0
2017-10-27T04:45:15.781Z,0
2017-10-27T04:46:15.306Z,0
2017-10-27T04:47:15.930Z,0
2017-10-27T04:48:16.304Z,0
2017-10-27T04:49:15.561Z,0
2017-10-27T04:50:15.861Z,0
2017-10-27T04:51:16.156Z,0
2017-10-27T04:52:15.507Z,0
2017-10-27T04:53:14.920Z,0
2017-10-27T04:54:15.512Z,0
2017-10-27T04:55:15.772Z,0
2017-10-27T04:56:16.062Z,0
2017-10-27T04:57:15.122Z,0
2017-10-27T04:58:15.171Z,0
2017-10-27T04:59:15.372Z,0
2017-10-27T05:00:15.680Z,0
2017-10-27T05:01:15.654Z,0
2017-10-27T05:02:15.620Z,0
2017-10-27T05:03:15.647Z,0
2017-10-27T05:04:15.268Z,0
2017-10-27T05:05:15.582Z,0
2017-10-27T05:06:14.996Z,0
2017-10-27T05:07:15.560Z,0
2017-10-27T05:08:15.843Z,0
2017-10-27T05:09:15.822Z,0
2017-10-27T05:10:15.239Z,0
2017-10-27T05:11:15.544Z,0
2017-10-27T05:12:15.428Z,0
2017-10-27T05:13:15.423Z,0
2017-10-27T05:14:15.391Z,0
2017-10-27T05:15:15.730Z,0
2017-10-27T05:16:15.686Z,0
2017-10-27T05:17:15.774Z,0
2017-10-27T05:18:15.321Z,0
2017-10-27T05:19:15.670Z,0
2017-10-27T05:20:15.332Z,0
2017-10-27T05:21:15.573Z,0
2017-10-27T05:22:15.230Z,0
2017-10-27T05:23:14.902Z,0
2017-10-27T05:24:15.201Z,0
2017-10-27T05:25:15.502Z,0
2017-10-27T05:26:14.832Z,0
2017-10-27T05:27:15.240Z,0
2017-10-27T05:28:15.162Z,0
2017-10-27T05:29:14.447Z,0
2017-10-27T05:30:14.523Z,0
2017-10-27T05:31:14.805Z,0
2017-10-27T05:32:14.721Z,0
2017-10-27T05:33:15.022Z,0
2017-10-27T05:34:15.012Z,0
2017-10-27T05:35:14.320Z,0
2017-10-27T05:36:15.283Z,0
2017-10-27T05:37:14.946Z,0
2017-10-27T05:38:15.252Z,0
2017-10-27T05:39:15.313Z,0
2017-10-27T05:40:14.659Z,0
2017-10-27T05:41:14.519Z,0
2017-10-27T05:42:14.595Z,0
2017-10-27T05:43:14.822Z,0
2017-10-27T05:44:14.723Z,0
2017-10-27T05:45:15.112Z,0
2017-10-27T05:46:14.431Z,0
2017-10-27T05:47:14.740Z,0
2017-10-27T05:48:14.413Z,0
2017-10-27T05:49:14.459Z,0
2017-10-27T05:50:14.357Z,0
2017-10-27T05:51:14.326Z,0
2017-10-27T05:52:14.330Z,0
2017-10-27T05:53:14.625Z,0
2017-10-27T05:54:14.661Z,0
2017-10-27T05:55:14.600Z,0
2017-10-27T05:56:14.551Z,0
2017-10-27T05:57:14.548Z,0
2017-10-27T05:58:14.892Z,0
2017-10-27T05:59:14.828Z,0
2017-10-27T06:00:14.227Z,0
2017-10-27T06:01:14.483Z,0
2017-10-27T06:02:14.500Z,0
2017-10-27T06:03:14.444Z,0
2017-10-27T06:04:14.492Z,0
2017-10-27T06:05:14.913Z,0
2017-10-27T06:06:14.373Z,0
2017-10-27T06:07:14.686Z,0
2017-10-27T06:08:14.322Z,0
2017-10-27T06:09:14.345Z,0
2017-10-27T06:10:14.632Z,0
2017-10-27T06:11:14.282Z,0
2017-10-27T06:12:14.262Z,5
2017-10-27T06:13:14.217Z,5
2017-10-27T06:14:14.635Z,5
2017-10-27T06:15:14.525Z,5
2017-10-27T06:16:14.550Z,5
2017-10-27T06:17:14.495Z,5
2017-10-27T06:18:14.524Z,5
2017-10-27T06:19:14.475Z,5
2017-10-27T06:20:13.781Z,5
2017-10-27T06:21:14.509Z,5
2017-10-27T06:22:14.390Z,5
2017-10-27T06:23:13.752Z,5
2017-10-27T06:24:13.789Z,5
2017-10-27T06:25:13.998Z,5
2017-10-27T06:26:14.039Z,5
2017-10-27T06:27:14.351Z,5
2017-10-27T06:28:14.264Z,5
2017-10-27T06:29:12.943Z,5
2017-10-27T06:30:13.610Z,10
2017-10-27T06:31:13.204Z,10
2017-10-27T06:32:13.873Z,10
2017-10-27T06:33:13.562Z,10
2017-10-27T06:34:13.893Z,10
2017-10-27T06:35:13.463Z,15
2017-10-27T06:36:13.845Z,15
2017-10-27T06:37:13.760Z,15
2017-10-27T06:38:13.439Z,10
2017-10-27T06:39:13.462Z,10
2017-10-27T06:40:13.714Z,10
2017-10-27T06:41:13.990Z,10
2017-10-27T06:42:14.032Z,10
2017-10-27T06:43:13.660Z,15
2017-10-27T06:44:13.924Z,15
2017-10-27T06:45:13.705Z,20
2017-10-27T06:46:13.618Z,20
2017-10-27T06:47:13.885Z,20
2017-10-27T06:48:12.885Z,15
2017-10-27T06:49:12.868Z,15
2017-10-27T06:50:13.906Z,15
2017-10-27T06:51:13.577Z,15
2017-10-27T06:52:13.120Z,10
2017-10-27T06:53:13.145Z,10
2017-10-27T06:54:13.764Z,10
2017-10-27T06:55:13.069Z,10
2017-10-27T06:56:13.375Z,15
2017-10-27T06:57:13.353Z,15
2017-10-27T06:58:13.003Z,20
2017-10-27T06:59:13.304Z,25
2017-10-27T07:00:12.650Z,25
2017-10-27T07:01:13.281Z,25
2017-10-27T07:02:13.024Z,30
2017-10-27T07:03:13.584Z,35
2017-10-27T07:04:13.216Z,40
2017-10-27T07:05:13.514Z,45
2017-10-27T07:06:13.229Z,50
2017-10-27T07:07:12.827Z,55
2017-10-27T07:08:13.215Z,65
2017-10-27T07:09:12.463Z,70
2017-10-27T07:10:13.196Z,85
2017-10-27T07:11:12.739Z,140
2017-10-27T07:12:12.871Z,345
2017-10-27T07:13:13.057Z,360
2017-10-27T07:14:13.024Z,380
2017-10-27T07:15:12.380Z,615
2017-10-27T07:16:12.985Z,665
2017-10-27T07:17:12.320Z,515
2017-10-27T07:18:13.572Z,175
2017-10-27T07:19:13.284Z,335
2017-10-27T07:20:13.313Z,735
2017-10-27T07:21:12.239Z,465
2017-10-27T07:22:13.293Z,350
2017-10-27T07:23:13.173Z,760
2017-10-27T07:24:13.153Z,810
2017-10-27T07:25:12.174Z,790
2017-10-27T07:26:13.153Z,650
2017-10-27T07:27:12.773Z,775
2017-10-27T07:28:13.075Z,890
2017-10-27T07:29:12.744Z,890
2017-10-27T07:30:13.161Z,885
2017-10-27T07:31:12.802Z,895
2017-10-27T07:32:12.778Z,925
2017-10-27T07:33:12.393Z,955
2017-10-27T07:34:13.061Z,795
2017-10-27T07:35:12.024Z,700
2017-10-27T07:36:12.063Z,1000
2017-10-27T07:37:12.650Z,1020
2017-10-27T07:38:12.733Z,1065
2017-10-27T07:39:12.643Z,1085
2017-10-27T07:40:12.335Z,980
2017-10-27T07:41:12.981Z,945
2017-10-27T07:42:12.597Z,900
2017-10-27T07:43:12.256Z,935
2017-10-27T07:44:12.569Z,940
2017-10-27T07:45:12.575Z,1050
2017-10-27T07:46:11.893Z,1100
2017-10-27T07:47:12.846Z,625
2017-10-27T07:48:12.202Z,845
2017-10-27T07:49:12.508Z,665
2017-10-27T07:50:12.180Z,295
2017-10-27T07:51:12.817Z,135
2017-10-27T07:52:12.501Z,85
2017-10-27T07:53:12.816Z,65
2017-10-27T07:54:12.472Z,60
2017-10-27T07:55:12.466Z,60
2017-10-27T07:56:12.145Z,55
2017-10-27T07:57:12.334Z,60
2017-10-27T07:58:12.436Z,70
2017-10-27T07:59:12.759Z,90
2017-10-27T08:00:12.082Z,100
2017-10-27T08:01:12.146Z,110
2017-10-27T08:02:12.477Z,165
2017-10-27T08:03:12.329Z,360
2017-10-27T08:04:12.010Z,810
2017-10-27T08:05:12.322Z,1140
2017-10-27T08:06:12.603Z,1200
2017-10-27T08:07:12.282Z,1235
2017-10-27T08:08:12.636Z,1165
2017-10-27T08:09:12.256Z,1195
2017-10-27T08:10:12.244Z,1220
2017-10-27T08:11:12.241Z,1065
2017-10-27T08:12:11.887Z,1190
2017-10-27T08:13:11.924Z,1245
2017-10-27T08:14:12.498Z,1115
2017-10-27T08:15:12.214Z,840
2017-10-27T08:16:12.225Z,915
2017-10-27T08:17:12.491Z,880
2017-10-27T08:18:12.214Z,1025
2017-10-27T08:19:12.164Z,1280
2017-10-27T08:20:12.152Z,1370
2017-10-27T08:21:12.095Z,1300
2017-10-27T08:22:12.132Z,1230
2017-10-27T08:23:12.492Z,1240
2017-10-27T08:24:12.172Z,1260
2017-10-27T08:25:12.186Z,1315
2017-10-27T08:26:11.409Z,1360
2017-10-27T08:27:11.842Z,1425
2017-10-27T08:28:12.058Z,1400
2017-10-27T08:29:12.060Z,1260
2017-10-27T08:30:12.408Z,1305
2017-10-27T08:31:12.096Z,1460
2017-10-27T08:32:12.215Z,1415
2017-10-27T08:33:12.077Z,1380
2017-10-27T08:34:12.045Z,1365
2017-10-27T08:35:11.986Z,1440
2017-10-27T08:36:11.983Z,1465
2017-10-27T08:37:11.986Z,1395
2017-10-27T08:38:12.412Z,1370
2017-10-27T08:39:12.000Z,1380
2017-10-27T08:40:11.963Z,1380
2017-10-27T08:41:11.992Z,1405
2017-10-27T08:42:11.938Z,1460
2017-10-27T08:43:12.272Z,1445
2017-10-27T08:44:11.990Z,1365
2017-10-27T08:45:12.224Z,1345
2017-10-27T08:46:12.240Z,1290
2017-10-27T08:47:12.225Z,1325
2017-10-27T08:48:11.903Z,1435
2017-10-27T08:49:12.252Z,1410
2017-10-27T08:50:11.877Z,1355
2017-10-27T08:51:11.576Z,1400
2017-10-27T08:52:12.212Z,1420
2017-10-27T08:53:12.185Z,1370
2017-10-27T08:54:12.189Z,1360
2017-10-27T08:55:12.187Z,1415
2017-10-27T08:56:12.172Z,1460
2017-10-27T08:57:11.836Z,1395
2017-10-27T08:58:12.157Z,1440
2017-10-27T08:59:11.833Z,1095
2017-10-27T09:00:11.800Z,905
2017-10-27T09:01:12.161Z,1100
2017-10-27T09:02:12.133Z,300
2017-10-27T09:03:12.193Z,245
2017-10-27T09:04:11.454Z,1280
2017-10-27T09:05:12.203Z,1330
2017-10-27T09:06:11.775Z,1190
2017-10-27T09:07:11.873Z,1370
2017-10-27T09:08:12.152Z,1380
2017-10-27T09:09:12.118Z,1335
2017-10-27T09:10:12.083Z,1395
2017-10-27T09:11:11.858Z,1385
2017-10-27T09:12:11.763Z,810
2017-10-27T09:13:12.088Z,725
2017-10-27T09:14:12.102Z,500
2017-10-27T09:15:12.050Z,1270
2017-10-27T09:16:12.095Z,1330
2017-10-27T09:17:12.035Z,1165
2017-10-27T09:18:12.011Z,1350
2017-10-27T09:19:12.043Z,1155
2017-10-27T09:20:12.044Z,470
2017-10-27T09:21:12.033Z,1130
2017-10-27T09:22:11.672Z,470
2017-10-27T09:23:12.032Z,1200
2017-10-27T09:24:11.643Z,730
2017-10-27T09:25:12.014Z,755
2017-10-27T09:26:11.948Z,1240
2017-10-27T09:27:11.634Z,1285
2017-10-27T09:28:11.982Z,840
2017-10-27T09:29:11.603Z,940
2017-10-27T09:30:11.921Z,360
2017-10-27T09:31:11.591Z,915
2017-10-27T09:32:11.893Z,590
2017-10-27T09:33:11.551Z,1220
2017-10-27T09:34:11.905Z,540
2017-10-27T09:35:11.886Z,350
2017-10-27T09:36:11.553Z,920
2017-10-27T09:37:11.848Z,400
2017-10-27T09:38:11.857Z,1225
2017-10-27T09:39:11.584Z,1185
2017-10-27T09:40:11.228Z,1110
2017-10-27T09:41:11.532Z,1160
2017-10-27T09:42:11.795Z,1230
2017-10-27T09:43:11.888Z,455
2017-10-27T09:44:11.877Z,680
2017-10-27T09:45:11.774Z,420
2017-10-27T09:46:11.113Z,435
2017-10-27T09:47:11.569Z,1250
2017-10-27T09:48:12.059Z,670
2017-10-27T09:49:11.486Z,530
2017-10-27T09:50:11.493Z,1085
2017-10-27T09:51:11.727Z,1040
2017-10-27T09:52:11.784Z,1035
2017-10-27T09:53:11.785Z,560
2017-10-27T09:54:11.710Z,695
2017-10-27T09:55:11.368Z,640
2017-10-27T09:56:11.349Z,1140
2017-10-27T09:57:10.992Z,210
2017-10-27T09:58:11.702Z,315
2017-10-27T09:59:11.339Z,155
2017-10-27T10:00:11.320Z,170
2017-10-27T10:01:11.625Z,210
2017-10-27T10:02:11.283Z,365
2017-10-27T10:03:11.390Z,285
2017-10-27T10:04:11.622Z,170
2017-10-27T10:05:11.273Z,175
2017-10-27T10:06:11.577Z,185
2017-10-27T10:07:11.227Z,180
2017-10-27T10:08:11.567Z,230
2017-10-27T10:09:11.552Z,195
2017-10-27T10:10:10.935Z,220
2017-10-27T10:11:11.533Z,170
2017-10-27T10:12:11.579Z,160
2017-10-27T10:13:11.496Z,215
2017-10-27T10:14:11.481Z,265
2017-10-27T10:15:11.153Z,170
2017-10-27T10:16:11.481Z,950
2017-10-27T10:17:11.440Z,920
2017-10-27T10:18:10.766Z,500
2017-10-27T10:19:11.086Z,230
2017-10-27T10:20:11.383Z,800
2017-10-27T10:21:11.414Z,885
2017-10-27T10:22:11.367Z,925
2017-10-27T10:23:11.368Z,795
2017-10-27T10:24:11.052Z,350
2017-10-27T10:25:10.713Z,205
2017-10-27T10:26:11.113Z,190
2017-10-27T10:27:10.972Z,260
2017-10-27T10:28:11.025Z,205
2017-10-27T10:29:10.622Z,185
2017-10-27T10:30:10.964Z,150
2017-10-27T10:31:10.620Z,95
2017-10-27T10:32:10.615Z,65
2017-10-27T10:33:10.583Z,60
2017-10-27T10:34:10.573Z,60
2017-10-27T10:35:10.881Z,70
2017-10-27T10:36:11.207Z,80
2017-10-27T10:37:10.545Z,110
2017-10-27T10:38:10.885Z,130
2017-10-27T10:39:10.851Z,195
2017-10-27T10:40:10.842Z,725
2017-10-27T10:41:10.791Z,375
2017-10-27T10:42:10.803Z,215
2017-10-27T10:43:10.466Z,235
2017-10-27T10:44:10.758Z,315
2017-10-27T10:45:10.763Z,305
2017-10-27T10:46:10.740Z,660
2017-10-27T10:47:11.039Z,565
2017-10-27T10:48:10.713Z,895
2017-10-27T10:49:10.705Z,320
2017-10-27T10:50:10.724Z,220
2017-10-27T10:51:10.673Z,210
2017-10-27T10:52:10.044Z,1175
2017-10-27T10:53:10.322Z,690
2017-10-27T10:54:11.200Z,1155
2017-10-27T10:55:10.610Z,1155
2017-10-27T10:56:10.265Z,995
2017-10-27T10:57:10.631Z,1130
2017-10-27T10:58:10.920Z,1120
2017-10-27T10:59:10.962Z,1160
2017-10-27T11:00:10.256Z,1110
2017-10-27T11:01:10.524Z,1110
2017-10-27T11:02:10.511Z,1130
2017-10-27T11:03:09.964Z,1140
2017-10-27T11:04:10.538Z,1115
2017-10-27T11:05:10.845Z,1165
2017-10-27T11:06:10.535Z,1170
2017-10-27T11:07:10.489Z,1035
2017-10-27T11:08:10.495Z,1145
2017-10-27T11:09:10.864Z,1110
2017-10-27T11:10:10.113Z,1120
2017-10-27T11:11:10.743Z,930
2017-10-27T11:12:10.422Z,1150
2017-10-27T11:13:10.786Z,335
2017-10-27T11:14:10.130Z,1135
2017-10-27T11:15:10.394Z,1135
2017-10-27T11:16:10.734Z,365
2017-10-27T11:17:10.710Z,185
2017-10-27T11:18:10.349Z,1015
2017-10-27T11:19:10.327Z,1045
2017-10-27T11:20:10.318Z,985
2017-10-27T11:21:10.335Z,1095
2017-10-27T11:22:10.719Z,205
2017-10-27T11:23:09.964Z,1130
2017-10-27T11:24:10.302Z,1120
2017-10-27T11:25:10.614Z,1090
2017-10-27T11:26:10.645Z,1105
2017-10-27T11:27:10.604Z,1155
2017-10-27T11:28:10.592Z,180
2017-10-27T11:29:10.577Z,880
2017-10-27T11:30:10.547Z,530
2017-10-27T11:31:10.525Z,190
2017-10-27T11:32:10.545Z,175
2017-10-27T11:33:10.484Z,160
2017-10-27T11:34:10.224Z,175
2017-10-27T11:35:10.189Z,200
2017-10-27T11:36:10.504Z,180
2017-10-27T11:37:10.452Z,1380
2017-10-27T11:38:09.826Z,1005
2017-10-27T11:39:10.452Z,175
2017-10-27T11:40:10.100Z,190
2017-10-27T11:41:09.840Z,1240
2017-10-27T11:42:10.411Z,1060
2017-10-27T11:43:10.316Z,210
2017-10-27T11:44:10.383Z,150
2017-10-27T11:45:10.374Z,1325
2017-10-27T11:46:09.714Z,590
2017-10-27T11:47:10.062Z,1230
2017-10-27T11:48:10.323Z,1270
2017-10-27T11:49:09.698Z,1365
2017-10-27T11:50:10.313Z,1275
2017-10-27T11:51:10.307Z,285
2017-10-27T11:52:09.983Z,505
2017-10-27T11:53:09.941Z,1320
2017-10-27T11:54:09.625Z,1255
2017-10-27T11:55:09.922Z,1215
2017-10-27T11:56:10.013Z,1230
2017-10-27T11:57:09.896Z,1205
2017-10-27T11:58:09.900Z,260
2017-10-27T11:59:09.544Z,1165
2017-10-27T12:00:09.932Z,1180
2017-10-27T12:01:10.246Z,1185
2017-10-27T12:02:10.261Z,235
2017-10-27T12:03:10.261Z,1030
2017-10-27T12:04:10.219Z,1110
2017-10-27T12:05:09.887Z,1095
2017-10-27T12:06:10.138Z,1015
2017-10-27T12:07:10.126Z,935
2017-10-27T12:08:09.439Z,945
2017-10-27T12:09:10.079Z,1050
2017-10-27T12:10:09.774Z,1035
2017-10-27T12:11:09.743Z,1070
2017-10-27T12:12:10.092Z,170
2017-10-27T12:13:09.508Z,150
2017-10-27T12:14:10.057Z,170
2017-10-27T12:15:10.012Z,155
2017-10-27T12:16:09.367Z,170
2017-10-27T12:17:09.673Z,170
2017-10-27T12:18:09.968Z,175
2017-10-27T12:19:09.331Z,140
2017-10-27T12:20:09.450Z,140
2017-10-27T12:21:09.618Z,135
2017-10-27T12:22:10.016Z,125
2017-10-27T12:23:09.964Z,125
2017-10-27T12:24:09.893Z,125
2017-10-27T12:25:09.876Z,125
2017-10-27T12:26:09.569Z,125
2017-10-27T12:27:09.872Z,120
2017-10-27T12:28:09.597Z,125
2017-10-27T12:29:09.523Z,165
2017-10-27T12:30:09.865Z,775
2017-10-27T12:31:09.528Z,205
2017-10-27T12:32:09.466Z,215
2017-10-27T12:33:09.810Z,145
2017-10-27T12:34:09.766Z,165
2017-10-27T12:35:09.784Z,155
2017-10-27T12:36:09.753Z,145
2017-10-27T12:37:09.434Z,130
2017-10-27T12:38:09.737Z,110
2017-10-27T12:39:09.376Z,100
2017-10-27T12:40:09.688Z,75
2017-10-27T12:41:09.674Z,55
2017-10-27T12:42:09.353Z,45
2017-10-27T12:43:09.660Z,40
2017-10-27T12:44:09.314Z,45
2017-10-27T12:45:09.638Z,45
2017-10-27T12:46:09.594Z,40
2017-10-27T12:47:09.584Z,35
2017-10-27T12:48:09.596Z,30
2017-10-27T12:49:09.245Z,30
2017-10-27T12:50:09.538Z,35
2017-10-27T12:51:09.542Z,35
2017-10-27T12:52:09.526Z,35
2017-10-27T12:53:09.500Z,30
2017-10-27T12:54:08.966Z,30
2017-10-27T12:55:09.155Z,35
2017-10-27T12:56:09.432Z,30
2017-10-27T12:57:09.423Z,30
2017-10-27T12:58:09.076Z,25
2017-10-27T12:59:09.383Z,25
2017-10-27T13:00:08.749Z,35
2017-10-27T13:01:08.734Z,40
2017-10-27T13:02:09.366Z,40
2017-10-27T13:03:09.353Z,40
2017-10-27T13:04:08.982Z,40
2017-10-27T13:05:08.990Z,35
2017-10-27T13:06:09.262Z,40
2017-10-27T13:07:09.294Z,40
2017-10-27T13:08:09.310Z,40
2017-10-27T13:09:08.257Z,45
2017-10-27T13:10:09.256Z,40
2017-10-27T13:11:08.876Z,40
2017-10-27T13:12:09.217Z,45
2017-10-27T13:13:08.875Z,45
2017-10-27T13:14:09.137Z,45
2017-10-27T13:15:09.170Z,45
2017-10-27T13:16:08.809Z,50
2017-10-27T13:17:08.894Z,60
2017-10-27T13:18:09.417Z,70
2017-10-27T13:19:08.433Z,75
2017-10-27T13:20:08.524Z,75
2017-10-27T13:21:09.043Z,110
2017-10-27T13:22:08.745Z,160
2017-10-27T13:23:08.684Z,135
2017-10-27T13:24:08.668Z,220
2017-10-27T13:25:08.324Z,215
2017-10-27T13:26:08.652Z,215
2017-10-27T13:27:08.627Z,215
2017-10-27T13:28:08.614Z,215
2017-10-27T13:29:08.576Z,210
2017-10-27T13:30:08.892Z,210
2017-10-27T13:31:08.533Z,210
2017-10-27T13:32:08.568Z,205
2017-10-27T13:33:08.966Z,205
2017-10-27T13:34:08.225Z,205
2017-10-27T13:35:08.661Z,200
2017-10-27T13:36:08.517Z,200
2017-10-27T13:37:08.558Z,205
2017-10-27T13:38:08.497Z,195
2017-10-27T13:39:08.810Z,195
2017-10-27T13:40:08.422Z,195
2017-10-27T13:41:08.423Z,195
2017-10-27T13:42:08.735Z,195
2017-10-27T13:43:08.500Z,200
2017-10-27T13:44:08.375Z,195
2017-10-27T13:45:08.729Z,195
2017-10-27T13:46:08.358Z,190
2017-10-27T13:47:08.737Z,190
2017-10-27T13:48:08.283Z,190
2017-10-27T13:49:07.961Z,190
2017-10-27T13:50:08.343Z,155
2017-10-27T13:51:08.234Z,190
2017-10-27T13:52:08.248Z,80
2017-10-27T13:53:08.566Z,105
2017-10-27T13:54:08.211Z,180
2017-10-27T13:55:08.589Z,85
2017-10-27T13:56:08.523Z,90
2017-10-27T13:57:08.215Z,125
2017-10-27T13:58:07.828Z,95
2017-10-27T13:59:07.470Z,200
2017-10-27T14:00:07.822Z,190
2017-10-27T14:01:08.550Z,90
2017-10-27T14:02:08.088Z,185
2017-10-27T14:03:07.735Z,180
2017-10-27T14:04:08.083Z,85
2017-10-27T14:05:08.405Z,175
2017-10-27T14:06:08.425Z,170
2017-10-27T14:07:08.325Z,170
2017-10-27T14:08:08.379Z,175
2017-10-27T14:09:07.992Z,170
2017-10-27T14:10:07.975Z,175
2017-10-27T14:11:07.959Z,190